Time;durP1;ratioP1;P1;durP2;ratioP2;P2;SDS_P1;SDS_P2;PMS_P1;PMS_P2;Temp;Humidity;BMP_temperature;BMP_pressure;BME280_temperature;BME280_humidity;BME280_pressure;Samples;Min_cycle;Max_cycle;Signal;HPM_P1;HPM_P2
2021/10/29 00:01:40;;;;;;;8.65;5.65;;;;;;;11.16;100.00;100801.22;5070736;28;20036;-33
2021/10/29 00:04:09;;;;;;;9.13;5.85;;;;;;;11.16;100.00;100802.06;5070382;28;20036;-40
2021/10/29 00:06:37;;;;;;;9.18;5.60;;;;;;;11.15;99.89;100797.63;5070547;28;20051;-36
2021/10/29 00:09:05;;;;;;;9.07;5.88;;;;;;;11.15;99.93;100788.41;5070858;28;20049;-34
2021/10/29 00:11:32;;;;;;;9.32;6.13;;;;;;;11.16;99.60;100790.06;5070076;28;20036;-34
2021/10/29 00:14:01;;;;;;;9.13;6.20;;;;;;;11.10;99.63;100783.72;5070725;28;20135;-40
2021/10/29 00:16:28;;;;;;;8.98;6.15;;;;;;;11.07;99.99;100781.53;5069415;28;20226;-37
2021/10/29 00:18:56;;;;;;;10.75;6.22;;;;;;;11.05;99.90;100781.84;5070136;28;20048;-38
2021/10/29 00:21:25;;;;;;;10.80;6.30;;;;;;;11.01;100.00;100791.94;5070353;28;20056;-37
2021/10/29 00:23:56;;;;;;;9.30;6.28;;;;;;;11.01;100.00;100774.38;5070745;28;20052;-36
2021/10/29 00:26:24;;;;;;;11.00;6.35;;;;;;;11.02;99.92;100776.84;5069901;28;20056;-34
2021/10/29 00:28:51;;;;;;;10.00;6.30;;;;;;;11.04;99.79;100779.34;5071441;28;20048;-34
2021/10/29 00:31:19;;;;;;;8.77;6.20;;;;;;;11.02;99.81;100784.41;5073892;28;20045;-34
2021/10/29 00:33:47;;;;;;;10.18;6.50;;;;;;;11.02;99.71;100792.78;5073904;28;20099;-35
2021/10/29 00:36:15;;;;;;;8.70;6.35;;;;;;;11.01;99.81;100780.78;5073829;28;20047;-34
2021/10/29 00:38:44;;;;;;;10.30;5.72;;;;;;;11.03;99.44;100789.69;5074273;28;20052;-37
2021/10/29 00:41:12;;;;;;;8.18;5.70;;;;;;;10.97;99.69;100778.94;5073417;28;20505;-36
2021/10/29 00:43:39;;;;;;;8.45;6.20;;;;;;;10.97;99.81;100764.97;5073826;28;20053;-34
2021/10/29 00:46:07;;;;;;;9.23;6.18;;;;;;;10.95;99.65;100767.22;5073907;28;20087;-38
2021/10/29 00:48:35;;;;;;;10.50;6.43;;;;;;;10.94;99.67;100773.94;5073554;28;20114;-38
2021/10/29 00:51:04;;;;;;;8.57;6.55;;;;;;;10.92;99.75;100760.28;5073888;28;20041;-34
2021/10/29 00:53:33;;;;;;;10.00;6.40;;;;;;;10.92;99.80;100765.88;5073322;28;20068;-35
2021/10/29 00:56:02;;;;;;;9.63;6.45;;;;;;;10.89;99.84;100760.06;5073729;28;20056;-32
2021/10/29 00:58:30;;;;;;;8.88;6.57;;;;;;;10.85;100.00;100764.59;5073537;28;20072;-31
2021/10/29 01:00:57;;;;;;;9.43;6.30;;;;;;;10.88;99.95;100763.97;5073339;28;20124;-37
2021/10/29 01:03:26;;;;;;;10.07;7.20;;;;;;;10.88;99.67;100762.03;5073628;28;20401;-30
2021/10/29 01:05:54;;;;;;;9.13;6.40;;;;;;;10.88;99.49;100755.59;5073599;28;20044;-35
2021/10/29 01:08:22;;;;;;;11.27;6.97;;;;;;;10.87;99.46;100762.31;5072880;28;20040;-36
2021/10/29 01:10:50;;;;;;;12.43;6.88;;;;;;;10.86;99.55;100755.06;5073554;28;20047;-38
2021/10/29 01:13:19;;;;;;;12.02;6.88;;;;;;;10.82;99.93;100763.22;5073240;28;20059;-37
2021/10/29 01:15:47;;;;;;;9.05;6.15;;;;;;;10.82;99.86;100756.81;5073403;28;20174;-38
2021/10/29 01:18:15;;;;;;;10.07;6.05;;;;;;;10.81;99.60;100757.94;5073299;28;20456;-36
2021/10/29 01:20:44;;;;;;;11.82;6.55;;;;;;;10.80;99.63;100751.53;5073463;28;20067;-37
2021/10/29 01:23:11;;;;;;;12.43;7.22;;;;;;;10.79;99.49;100749.06;5072573;28;20048;-39
2021/10/29 01:25:39;;;;;;;9.68;6.75;;;;;;;10.77;99.55;100754.13;5073083;28;20051;-34
2021/10/29 01:28:10;;;;;;;10.13;6.97;;;;;;;10.77;99.32;100751.34;5073213;28;20044;-38
2021/10/29 01:30:38;;;;;;;13.40;7.05;;;;;;;10.77;99.23;100746.59;5073137;28;20059;-39
2021/10/29 01:33:06;;;;;;;8.88;6.40;;;;;;;10.76;99.29;100739.34;5073076;28;20041;-36
2021/10/29 01:35:33;;;;;;;10.85;6.63;;;;;;;10.74;99.15;100730.44;5072585;28;20415;-32
2021/10/29 01:38:02;;;;;;;12.43;7.28;;;;;;;10.70;99.21;100734.97;5072959;28;20050;-33
2021/10/29 01:40:30;;;;;;;10.50;7.38;;;;;;;10.69;99.33;100733.31;5073025;28;20068;-35
2021/10/29 01:42:58;;;;;;;10.90;7.25;;;;;;;10.66;99.35;100734.72;5072185;28;20048;-35
2021/10/29 01:45:25;;;;;;;8.93;6.40;;;;;;;10.64;99.21;100731.41;5072848;28;20067;-34
2021/10/29 01:47:53;;;;;;;9.43;6.32;;;;;;;10.64;99.30;100731.41;5072918;28;20044;-37
2021/10/29 01:50:21;;;;;;;10.60;6.97;;;;;;;10.58;99.58;100713.13;5072202;28;20055;-35
2021/10/29 01:52:49;;;;;;;11.93;7.65;;;;;;;10.59;99.66;100719.53;5072467;28;20083;-38
2021/10/29 01:55:18;;;;;;;10.15;6.97;;;;;;;10.60;99.59;100718.38;5072832;28;20055;-32
2021/10/29 01:57:46;;;;;;;9.40;6.80;;;;;;;10.59;99.43;100720.31;5072179;28;20067;-35
2021/10/29 02:00:15;;;;;;;11.02;7.00;;;;;;;10.60;99.28;100713.63;5072387;28;20044;-40
2021/10/29 02:02:42;;;;;;;8.10;6.30;;;;;;;10.59;99.27;100713.94;5072485;28;20056;-31
2021/10/29 02:05:11;;;;;;;10.35;6.43;;;;;;;10.58;99.17;100713.13;5071540;28;20044;-34
2021/10/29 02:07:39;;;;;;;9.52;6.72;;;;;;;10.58;99.07;100710.31;5072768;28;20067;-36
2021/10/29 02:10:08;;;;;;;11.48;7.00;;;;;;;10.59;98.88;100709.16;5072199;28;20435;-37
2021/10/29 02:12:37;;;;;;;10.13;6.45;;;;;;;10.57;99.04;100710.63;5072152;28;20406;-36
2021/10/29 02:15:06;;;;;;;11.60;6.78;;;;;;;10.58;98.93;100712.28;5072003;28;20048;-39
2021/10/29 02:17:34;;;;;;;9.40;6.63;;;;;;;10.59;98.76;100700.78;5072244;28;20063;-34
2021/10/29 02:20:04;;;;;;;9.80;7.00;;;;;;;10.56;98.93;100703.38;5071620;28;20040;-38
2021/10/29 02:22:32;;;;;;;8.73;6.38;;;;;;;10.56;99.09;100695.00;5072160;28;20036;-31
2021/10/29 02:25:00;;;;;;;10.43;6.82;;;;;;;10.57;98.81;100691.94;5070281;28;20052;-33
2021/10/29 02:27:27;;;;;;;11.48;7.28;;;;;;;10.54;98.90;100689.72;5072253;28;20048;-34
2021/10/29 02:29:56;;;;;;;9.48;6.55;;;;;;;10.54;98.99;100681.38;5071977;28;20421;-38
2021/10/29 02:32:24;;;;;;;11.15;7.00;;;;;;;10.50;99.16;100671.09;5070142;28;20040;-32
2021/10/29 02:34:52;;;;;;;8.55;6.47;;;;;;;10.50;99.27;100669.16;5071987;28;20138;-33
2021/10/29 02:37:20;;;;;;;11.88;6.72;;;;;;;10.50;99.10;100673.91;5071884;28;20433;-34
2021/10/29 02:39:47;;;;;;;11.43;6.72;;;;;;;10.48;99.20;100665.81;5071439;28;20052;-34
2021/10/29 02:42:15;;;;;;;8.82;6.20;;;;;;;10.49;99.06;100666.66;5071862;28;20420;-41
2021/10/29 02:44:43;;;;;;;8.30;6.30;;;;;;;10.47;99.32;100657.75;5057956;28;20048;-42
2021/10/29 02:47:12;;;;;;;9.20;6.53;;;;;;;10.49;99.27;100667.50;5070929;28;20037;-39
2021/10/29 02:49:40;;;;;;;11.45;6.32;;;;;;;10.50;99.16;100658.00;5071690;28;20391;-37
2021/10/29 02:52:08;;;;;;;8.93;6.32;;;;;;;10.49;99.21;100675.84;5070961;28;20044;-37
2021/10/29 02:54:36;;;;;;;9.20;6.57;;;;;;;10.49;99.13;100661.91;5071078;28;20048;-35
2021/10/29 02:57:05;;;;;;;9.57;6.25;;;;;;;10.50;99.15;100654.38;5071355;28;20056;-37
2021/10/29 02:59:33;;;;;;;9.65;6.25;;;;;;;10.53;98.89;100662.13;5071370;28;20098;-30
2021/10/29 03:02:01;;;;;;;11.13;6.60;;;;;;;10.54;98.86;100661.84;5070886;28;20043;-34
2021/10/29 03:04:30;;;;;;;12.80;6.75;;;;;;;10.54;98.59;100667.41;5071612;28;20098;-33
2021/10/29 03:06:58;;;;;;;10.63;6.13;;;;;;;10.57;98.56;100658.44;5070351;28;20041;-38
2021/10/29 03:09:25;;;;;;;10.07;6.30;;;;;;;10.55;98.68;100646.75;5071440;28;20123;-34
2021/10/29 03:11:53;;;;;;;9.63;6.30;;;;;;;10.56;98.57;100642.84;5070810;28;20048;-36
2021/10/29 03:14:21;;;;;;;10.43;6.30;;;;;;;10.58;98.38;100646.16;5071077;28;20448;-36
2021/10/29 03:16:49;;;;;;;10.70;6.72;;;;;;;10.58;98.43;100642.53;5071036;28;20045;-31
2021/10/29 03:19:16;;;;;;;9.15;6.10;;;;;;;10.59;98.24;100639.41;5071421;28;20044;-33
2021/10/29 03:21:45;;;;;;;11.15;6.95;;;;;;;10.61;98.09;100637.16;5070310;28;20040;-34
2021/10/29 03:24:13;;;;;;;10.45;6.53;;;;;;;10.63;97.80;100640.47;5071061;28;20036;-30
2021/10/29 03:26:41;;;;;;;10.60;6.05;;;;;;;10.66;97.49;100647.41;5071156;28;20044;-35
2021/10/29 03:29:09;;;;;;;9.25;6.50;;;;;;;10.66;97.31;100637.06;5070652;28;20044;-40
2021/10/29 03:31:36;;;;;;;10.10;6.82;;;;;;;10.66;97.27;100633.44;5069913;28;20119;-38
2021/10/29 03:34:04;;;;;;;9.30;6.07;;;;;;;10.66;97.22;100633.44;5071058;28;20044;-36
2021/10/29 03:36:31;;;;;;;9.32;6.47;;;;;;;10.66;97.11;100623.09;5070386;28;20043;-35
2021/10/29 03:39:02;;;;;;;8.40;5.78;;;;;;;10.64;97.23;100614.22;5070873;28;20060;-31
2021/10/29 03:41:32;;;;;;;8.25;6.03;;;;;;;10.61;97.07;100612.03;5071019;28;20052;-34
2021/10/29 03:44:06;;;;;;;9.65;6.20;;;;;;;10.60;97.16;100612.34;5064528;28;20471;-36
2021/10/29 03:46:34;;;;;;;9.73;6.32;;;;;;;10.55;97.03;100620.81;5071050;28;20478;-33
2021/10/29 03:49:10;;;;;;;9.88;5.85;;;;;;;10.43;97.66;100620.44;5070729;28;20082;-34
2021/10/29 03:51:41;;;;;;;8.63;5.72;;;;;;;10.39;97.61;100608.25;5071164;28;20044;-35
2021/10/29 03:54:14;;;;;;;9.80;6.43;;;;;;;10.28;98.02;100615.94;5070906;28;20052;-35
2021/10/29 03:56:46;;;;;;;;;;;;;;;10.17;98.09;100631.16;5070859;28;20053;-33
2021/10/29 03:59:14;;;;;;;10.07;6.25;;;;;;;10.07;99.33;100617.38;5070910;28;19921;-32
2021/10/29 04:01:42;;;;;;;10.55;6.40;;;;;;;10.06;99.30;100610.97;5070657;28;20139;-36
2021/10/29 04:04:10;;;;;;;9.27;6.60;;;;;;;9.99;99.75;100616.91;5071467;28;20041;-36
2021/10/29 04:06:37;;;;;;;9.85;6.78;;;;;;;9.95;99.78;100610.28;5074934;28;20044;-36
2021/10/29 04:09:05;;;;;;;9.55;6.65;;;;;;;9.89;100.00;100613.44;5074572;28;20148;-38
2021/10/29 04:11:37;;;;;;;11.15;7.40;;;;;;;9.88;100.00;100607.03;5074173;28;20044;-35
2021/10/29 04:14:07;;;;;;;11.63;7.25;;;;;;;9.82;100.00;100613.81;5074424;28;20123;-36
2021/10/29 04:16:36;;;;;;;10.43;6.93;;;;;;;9.81;100.00;100602.97;5074698;28;20041;-36
2021/10/29 04:19:05;;;;;;;12.48;6.90;;;;;;;9.80;100.00;100606.88;5073926;28;20051;-39
2021/10/29 04:21:33;;;;;;;11.05;7.50;;;;;;;9.79;100.00;100606.03;5074476;28;20047;-40
2021/10/29 04:24:01;;;;;;;11.25;7.30;;;;;;;9.80;100.00;100604.09;5074096;28;20048;-38
2021/10/29 04:26:29;;;;;;;12.02;7.20;;;;;;;9.80;100.00;100604.09;5073688;28;20044;-41
2021/10/29 04:28:58;;;;;;;11.00;7.28;;;;;;;9.82;100.00;100624.94;5073947;28;20052;-39
2021/10/29 04:31:27;;;;;;;11.30;7.07;;;;;;;9.82;100.00;100613.81;5072964;28;20498;-31
2021/10/29 04:33:55;;;;;;;11.18;7.22;;;;;;;9.84;100.00;100605.16;5074161;28;20040;-30
2021/10/29 04:36:23;;;;;;;11.43;6.88;;;;;;;9.84;100.00;100605.97;5073955;28;20037;-39
2021/10/29 04:38:54;;;;;;;13.52;7.65;;;;;;;9.84;100.00;100597.63;5071582;28;20041;-38
2021/10/29 04:41:23;;;;;;;11.88;6.60;;;;;;;9.86;100.00;100595.38;5072596;28;20041;-38
2021/10/29 04:43:50;;;;;;;11.68;6.60;;;;;;;9.88;100.00;100595.06;5073830;28;20057;-39
2021/10/29 04:46:19;;;;;;;11.93;6.95;;;;;;;9.90;100.00;100599.22;5073453;28;20051;-39
2021/10/29 04:48:47;;;;;;;11.77;7.18;;;;;;;9.93;100.00;100598.63;5073915;28;20052;-33
2021/10/29 04:51:15;;;;;;;11.93;6.93;;;;;;;9.95;100.00;100596.34;5073884;28;20049;-35
2021/10/29 04:53:42;;;;;;;10.00;6.45;;;;;;;9.99;100.00;100589.03;5073267;28;20128;-37
2021/10/29 04:56:10;;;;;;;9.32;6.25;;;;;;;9.98;100.00;100595.75;5073607;28;20509;-34
2021/10/29 04:58:38;;;;;;;13.98;7.63;;;;;;;10.03;100.00;100592.03;5073594;28;20049;-35
2021/10/29 05:01:06;;;;;;;10.40;7.18;;;;;;;10.07;100.00;100589.47;5069761;28;20049;-39
2021/10/29 05:03:35;;;;;;;9.80;6.57;;;;;;;10.08;100.00;100582.78;5073685;28;20048;-33
2021/10/29 05:06:03;;;;;;;11.45;6.43;;;;;;;10.14;100.00;100590.78;5073142;28;20041;-34
2021/10/29 05:08:31;;;;;;;10.23;6.82;;;;;;;10.17;100.00;100592.13;5072934;28;20286;-34
2021/10/29 05:10:58;;;;;;;10.98;6.65;;;;;;;10.21;100.00;100593.19;5073476;28;20060;-35
2021/10/29 05:13:26;;;;;;;11.32;6.53;;;;;;;10.23;100.00;100582.56;5073569;28;20037;-34
2021/10/29 05:15:54;;;;;;;11.07;6.63;;;;;;;10.26;100.00;100582.78;5072326;28;20114;-33
2021/10/29 05:18:22;;;;;;;12.90;6.88;;;;;;;10.32;100.00;100584.38;5073404;28;20040;-33
2021/10/29 05:20:52;;;;;;;9.38;5.97;;;;;;;10.38;100.00;100584.28;5072352;28;20058;-34
2021/10/29 05:23:20;;;;;;;10.07;5.97;;;;;;;10.42;100.00;100571.38;5073500;28;20523;-35
2021/10/29 05:25:48;;;;;;;12.55;6.65;;;;;;;10.43;99.91;100578.59;5073296;28;20045;-33
2021/10/29 05:28:16;;;;;;;11.13;6.68;;;;;;;10.45;99.83;100579.94;5071748;28;20048;-36
2021/10/29 05:30:43;;;;;;;11.25;6.93;;;;;;;10.45;99.70;100567.97;5073149;28;20060;-37
2021/10/29 05:33:11;;;;;;;11.50;6.82;;;;;;;10.47;99.49;100574.91;5072916;28;20063;-37
2021/10/29 05:35:39;;;;;;;13.38;6.85;;;;;;;10.49;99.28;100567.06;5072426;28;20056;-35
2021/10/29 05:38:08;;;;;;;9.60;6.30;;;;;;;10.54;99.12;100574.53;5072857;28;20661;-35
2021/10/29 05:40:36;;;;;;;9.60;5.90;;;;;;;10.57;98.82;100568.34;5072966;28;20434;-34
2021/10/29 05:43:04;;;;;;;10.25;6.32;;;;;;;10.58;98.68;100568.03;5072242;28;20060;-35
2021/10/29 05:45:33;;;;;;;8.80;6.18;;;;;;;10.57;98.70;100559.97;5072678;28;20080;-38
2021/10/29 05:48:04;;;;;;;9.55;6.60;;;;;;;10.57;98.91;100568.34;5072598;28;20048;-40
2021/10/29 05:50:32;;;;;;;9.52;5.90;;;;;;;10.55;98.93;100565.84;5072252;28;20056;-38
2021/10/29 05:53:02;;;;;;;12.05;6.32;;;;;;;10.58;98.79;100553.25;5072587;28;20041;-35
2021/10/29 05:55:31;;;;;;;10.65;6.30;;;;;;;10.59;98.89;100555.69;5072771;28;20072;-31
2021/10/29 05:57:59;;;;;;;8.77;6.45;;;;;;;10.61;98.82;100552.59;5071986;28;20146;-37
2021/10/29 06:00:29;;;;;;;10.55;6.07;;;;;;;10.60;98.69;100553.75;5072743;28;20052;-34
2021/10/29 06:03:03;;;;;;;8.55;6.30;;;;;;;10.60;98.87;100562.94;5072070;28;20040;-33
2021/10/29 06:05:32;;;;;;;8.27;6.05;;;;;;;10.60;98.58;100559.31;5072684;28;20052;-35
2021/10/29 06:08:00;;;;;;;10.73;6.28;;;;;;;10.59;98.58;100555.69;5072123;28;20043;-34
2021/10/29 06:10:28;;;;;;;8.20;6.13;;;;;;;10.58;98.56;100561.63;5071983;28;20041;-35
2021/10/29 06:12:57;;;;;;;11.02;6.05;;;;;;;10.56;98.61;100556.34;5072070;28;20052;-34
2021/10/29 06:15:25;;;;;;;9.00;5.88;;;;;;;10.49;98.57;100547.53;5072266;28;20095;-37
2021/10/29 06:17:53;;;;;;;9.57;6.18;;;;;;;10.38;98.60;100560.00;5071221;28;20040;-32
2021/10/29 06:20:22;;;;;;;10.43;7.10;;;;;;;10.21;98.95;100565.28;5072214;28;20079;-34
2021/10/29 06:22:51;;;;;;;9.73;5.78;;;;;;;10.08;99.56;100549.31;5071680;28;20524;-35
2021/10/29 06:25:21;;;;;;;10.55;6.63;;;;;;;9.97;100.00;100548.66;5067719;28;20052;-37
2021/10/29 06:30:39;;;;;;;9.30;6.50;;;;;;;9.80;100.00;100546.41;5071333;28;20094;-41
2021/10/29 06:33:07;;;;;;;9.80;6.38;;;;;;;9.76;100.00;100559.31;5069164;28;20044;-41
2021/10/29 06:35:35;;;;;;;9.85;6.80;;;;;;;9.76;100.00;100550.13;5070576;28;20045;-42
2021/10/29 06:38:04;;;;;;;12.13;6.93;;;;;;;9.74;100.00;100549.59;5071279;28;20103;-34
2021/10/29 06:40:37;;;;;;;10.55;6.50;;;;;;;9.75;100.00;100545.66;5071603;28;20052;-34
2021/10/29 06:43:09;;;;;;;10.07;6.65;;;;;;;9.75;100.00;100551.25;5070243;28;20143;-38
2021/10/29 06:46:06;;;;;;;13.90;6.83;;;;;;;9.77;100.00;100547.03;5071199;28;20056;-36
2021/10/29 06:48:38;;;;;;;10.30;6.07;;;;;;;9.79;100.00;100553.09;5071330;28;20404;-30
2021/10/29 06:59:28;;;;;;;9.52;5.85;;;;;;;10.03;100.00;100544.66;5070309;28;20045;-37
2021/10/29 07:02:08;;;;;;;12.73;6.70;;;;;;;10.12;100.00;100545.63;5071013;28;20045;-37
2021/10/29 07:04:57;;;;;;;11.75;6.40;;;;;;;10.20;100.00;100542.16;5070456;28;20076;-30
2021/10/29 07:40:43;;;;;;;11.82;6.15;;;;;;;10.95;98.21;100538.31;5071530;28;20060;-36
2021/10/29 07:43:14;;;;;;;8.52;6.10;;;;;;;11.04;97.89;100547.59;5070321;28;20048;-35
2021/10/29 07:45:43;;;;;;;9.45;5.70;;;;;;;11.13;97.46;100551.31;5070807;28;20123;-33
2021/10/29 07:48:11;;;;;;;8.05;5.75;;;;;;;11.27;96.99;100559.69;5070848;28;20080;-35
2021/10/29 07:50:40;;;;;;;8.25;5.50;;;;;;;11.43;96.07;100540.63;5070121;28;20041;-40
2021/10/29 07:53:08;;;;;;;9.50;5.65;;;;;;;11.56;95.36;100539.81;5069899;28;20075;-36
2021/10/29 07:55:36;;;;;;;9.45;5.65;;;;;;;11.71;94.17;100542.25;5070021;28;20049;-38
2021/10/29 07:58:08;;;;;;;6.75;5.05;;;;;;;11.90;93.56;100545.75;5070718;28;20135;-38
2021/10/29 08:00:35;;;;;;;9.70;5.55;;;;;;;12.11;92.51;100545.25;5070664;28;20048;-37
2021/10/29 08:03:06;;;;;;;10.10;5.65;;;;;;;12.30;91.59;100551.47;5069472;28;20535;-37
2021/10/29 08:05:35;;;;;;;11.70;5.25;;;;;;;12.48;90.40;100550.44;5070607;28;20044;-36
2021/10/29 08:08:05;;;;;;;8.38;5.03;;;;;;;12.68;88.77;100541.50;5070819;28;20059;-30
2021/10/29 08:10:34;;;;;;;9.38;5.28;;;;;;;12.78;87.31;100540.44;5056383;28;20123;-37
2021/10/29 08:13:04;;;;;;;8.57;4.80;;;;;;;12.95;86.66;100545.28;5070915;28;20055;-36
2021/10/29 08:15:34;;;;;;;9.07;5.10;;;;;;;13.09;86.38;100538.41;5070458;28;20089;-41
2021/10/29 08:18:04;;;;;;;11.38;4.97;;;;;;;13.23;85.17;100529.91;5069896;28;20052;-39
2021/10/29 08:20:32;;;;;;;8.15;5.05;;;;;;;13.34;84.29;100534.06;5070497;28;20048;-40
2021/10/29 08:23:00;;;;;;;7.95;4.70;;;;;;;13.49;83.47;100523.53;5070583;28;20136;-43
2021/10/29 08:25:33;;;;;;;8.90;5.15;;;;;;;13.56;81.62;100515.50;5070048;28;20135;-42
2021/10/29 08:28:01;;;;;;;9.68;5.00;;;;;;;13.75;82.33;100516.00;5070216;28;20052;-37
2021/10/29 08:30:49;;;;;;;10.65;5.00;;;;;;;13.84;80.62;100510.38;5070124;28;20056;-35
2021/10/29 08:33:17;;;;;;;9.27;5.20;;;;;;;14.05;81.19;100514.19;5070499;28;20218;-39
2021/10/29 08:35:44;;;;;;;11.55;5.07;;;;;;;14.21;80.17;100503.25;5070634;28;20078;-37
2021/10/29 08:38:13;;;;;;;8.00;4.75;;;;;;;14.32;79.61;100505.41;5069720;28;20051;-36
2021/10/29 08:40:43;;;;;;;6.25;4.22;;;;;;;14.42;79.36;100498.63;5070601;28;20059;-38
2021/10/29 08:43:11;;;;;;;6.20;4.35;;;;;;;14.48;77.16;100502.91;5070027;28;20080;-35
2021/10/29 08:45:39;;;;;;;7.15;4.30;;;;;;;14.57;77.57;100498.13;5070083;28;20044;-36
2021/10/29 08:48:07;;;;;;;11.82;5.15;;;;;;;14.62;76.01;100499.91;5070125;28;20036;-38
2021/10/29 08:50:34;;;;;;;7.18;4.38;;;;;;;14.63;75.44;100493.13;5072324;28;20040;-34
2021/10/29 08:53:03;;;;;;;8.82;4.30;;;;;;;14.65;76.49;100494.44;5072997;28;20489;-33
2021/10/29 08:55:33;;;;;;;7.70;4.32;;;;;;;14.77;75.24;100490.94;5073701;28;20055;-34
2021/10/29 08:58:06;;;;;;;8.00;4.30;;;;;;;14.77;75.37;100490.94;5073797;28;20140;-34
2021/10/29 09:00:37;;;;;;;8.65;4.20;;;;;;;14.85;74.54;100478.00;5070208;28;20059;-35
2021/10/29 09:03:07;;;;;;;9.52;5.13;;;;;;;14.92;74.78;100484.75;5073654;28;20110;-33
2021/10/29 09:05:43;;;;;;;8.15;4.28;;;;;;;15.09;75.31;100481.84;5073764;28;20048;-38
2021/10/29 09:08:17;;;;;;;8.77;4.40;;;;;;;15.26;75.15;100486.56;5073359;28;20059;-34
2021/10/29 09:31:27;;;;;;;6.32;4.18;;;;;;;15.34;74.00;100466.00;5073128;28;20470;-43
2021/10/29 09:33:58;;;;;;;8.30;5.03;;;;;;;15.46;73.12;100466.06;5072725;28;20055;-40
2021/10/29 09:36:27;;;;;;;6.70;4.07;;;;;;;15.57;73.51;100474.16;5073252;28;20405;-39
2021/10/29 09:38:57;;;;;;;7.18;4.70;;;;;;;15.49;72.85;100462.59;5073350;28;20382;-40
2021/10/29 09:42:01;;;;;;;9.60;4.85;;;;;;;15.53;71.81;100457.09;5071602;28;20198;-34
2021/10/29 09:44:39;;;;;;;9.82;4.60;;;;;;;15.63;72.33;100464.31;5072838;28;20086;-42
2021/10/29 09:47:09;;;;;;;9.10;4.60;;;;;;;15.56;72.31;100433.13;5070213;28;20083;-39
2021/10/29 09:49:39;;;;;;;8.10;4.40;;;;;;;15.54;72.28;100444.69;5072130;28;20048;-35
2021/10/29 09:52:37;;;;;;;6.75;4.30;;;;;;;15.66;72.99;100432.72;5072281;28;20055;-38
2021/10/29 09:55:16;;;;;;;7.47;4.75;;;;;;;15.67;71.98;100440.81;5071966;28;20048;-37
2021/10/29 09:57:48;;;;;;;6.63;4.30;;;;;;;15.70;71.65;100434.50;5072851;28;20049;-35
2021/10/29 10:00:16;;;;;;;7.47;4.38;;;;;;;15.71;71.23;100447.41;5072313;28;20064;-38
2021/10/29 10:02:47;;;;;;;7.82;4.22;;;;;;;15.85;71.07;100447.09;5072280;28;20060;-35
2021/10/29 10:05:17;;;;;;;10.75;4.70;;;;;;;15.83;70.66;100438.19;5072397;28;20041;-39
2021/10/29 10:07:46;;;;;;;8.73;4.70;;;;;;;15.82;70.80;100436.53;5069262;28;20067;-39
2021/10/29 10:10:14;;;;;;;7.93;4.63;;;;;;;15.80;70.35;100433.22;5071782;28;20469;-41
2021/10/29 10:12:44;;;;;;;7.28;4.38;;;;;;;15.68;70.97;100441.63;5072329;28;20541;-41
2021/10/29 10:15:13;;;;;;;6.65;4.18;;;;;;;15.71;71.26;100424.88;5072408;28;20052;-39
2021/10/29 10:17:41;;;;;;;7.18;4.30;;;;;;;15.73;71.27;100428.19;5071797;28;20063;-34
2021/10/29 10:20:11;;;;;;;7.90;4.47;;;;;;;15.72;70.58;100423.72;5072083;28;20040;-34
2021/10/29 10:22:41;;;;;;;10.70;4.97;;;;;;;15.78;69.82;100446.84;5072106;28;20481;-33
2021/10/29 10:25:17;;;;;;;5.68;4.15;;;;;;;15.80;70.82;100417.19;5071396;28;20044;-34
2021/10/29 10:45:17;;;;;;;5.80;4.00;;;;;;;16.21;69.88;100384.47;5067740;28;20055;-36
2021/10/29 10:47:50;;;;;;;7.70;3.80;;;;;;;16.24;69.40;100366.06;5071598;28;20049;-31
2021/10/29 10:50:22;;;;;;;6.32;3.92;;;;;;;16.35;69.72;100354.00;5071521;28;20056;-37
2021/10/29 10:53:30;;;;;;;7.53;4.00;;;;;;;16.47;69.34;100344.75;5067769;28;20068;-38
2021/10/29 10:59:00;;;;;;;6.47;3.88;;;;;;;16.54;69.81;100336.53;5066389;28;20063;-31
2021/10/29 11:01:57;;;;;;;6.35;4.20;;;;;;;16.58;70.09;100340.31;5059448;28;20036;-32
2021/10/29 11:10:04;;;;;;;5.97;4.30;;;;;;;16.64;69.62;100313.53;5053544;28;20101;-32
2021/10/29 11:13:06;;;;;;;6.68;3.80;;;;;;;16.63;68.67;100296.97;5069983;28;20448;-38
2021/10/29 11:15:35;;;;;;;6.00;4.15;;;;;;;16.52;69.28;100303.09;5061452;28;20102;-31
2021/10/29 11:18:22;;;;;;;9.15;4.15;;;;;;;16.55;69.60;100298.75;5069605;28;20068;-38
2021/10/29 11:20:51;;;;;;;7.00;4.15;;;;;;;16.53;69.93;100306.72;5061635;28;20123;-34
2021/10/29 11:23:22;;;;;;;7.05;3.72;;;;;;;16.55;69.66;100298.75;5069589;28;20044;-36
2021/10/29 11:25:58;;;;;;;7.82;4.05;;;;;;;16.53;67.97;100287.84;5070499;28;20053;-35
2021/10/29 11:28:32;;;;;;;6.25;3.20;;;;;;;16.39;67.64;100292.16;5069779;28;20048;-32
2021/10/29 11:31:00;;;;;;;6.95;3.72;;;;;;;16.39;68.02;100284.53;5060594;28;20067;-34
2021/10/29 11:33:29;;;;;;;6.95;3.30;;;;;;;16.40;67.71;100297.44;5070165;28;20048;-41
2021/10/29 11:36:00;;;;;;;6.55;3.85;;;;;;;16.46;68.07;100295.22;5070789;28;20521;-37
2021/10/29 11:38:29;;;;;;;5.40;3.20;;;;;;;16.56;68.58;100296.75;5070754;28;20040;-39
2021/10/29 11:40:59;;;;;;;7.22;3.92;;;;;;;16.67;68.41;100287.50;5070409;28;20425;-35
2021/10/29 11:43:30;;;;;;;6.35;3.30;;;;;;;16.77;68.19;100294.66;5070577;28;20045;-31
2021/10/29 11:45:59;;;;;;;6.25;3.28;;;;;;;16.81;68.02;100287.09;5071049;28;20051;-35
2021/10/29 11:48:27;;;;;;;6.88;3.40;;;;;;;16.79;67.34;100272.53;5070190;28;20040;-32
2021/10/29 11:51:10;;;;;;;8.40;3.30;;;;;;;16.90;66.80;100278.53;5070537;28;20047;-32
2021/10/29 11:53:43;;;;;;;7.28;3.58;;;;;;;16.84;67.51;100267.50;5070825;28;20135;-35
2021/10/29 11:56:24;;;;;;;5.70;3.10;;;;;;;16.84;67.44;100275.13;5069287;28;20052;-36
2021/10/29 11:59:05;;;;;;;6.43;3.20;;;;;;;16.84;67.11;100290.03;5070467;28;20504;-39
2021/10/29 12:01:35;;;;;;;7.50;3.60;;;;;;;16.81;67.05;100299.19;5067036;28;20040;-41
2021/10/29 12:09:35;;;;;;;5.05;3.30;;;;;;;16.97;67.79;100279.56;5069334;28;20390;-38
2021/10/29 12:12:08;;;;;;;7.32;3.40;;;;;;;17.01;67.06;100279.66;5070051;28;20382;-37
2021/10/29 12:14:37;;;;;;;5.85;3.65;;;;;;;16.95;66.80;100272.66;5069878;28;20075;-34
2021/10/29 12:17:14;;;;;;;7.50;4.00;;;;;;;16.95;66.85;100264.19;5069560;28;20098;-39
2021/10/29 12:19:44;;;;;;;5.95;3.33;;;;;;;16.91;67.12;100263.25;5069611;28;20595;-34
2021/10/29 12:22:25;;;;;;;7.45;4.32;;;;;;;16.87;67.13;100258.34;5066033;28;20047;-36
2021/10/29 12:24:58;;;;;;;8.43;4.32;;;;;;;16.74;66.61;100253.09;5070092;28;20044;-33
2021/10/29 12:27:33;;;;;;;6.18;3.63;;;;;;;16.68;67.43;100238.41;5070765;28;20043;-37
2021/10/29 12:30:18;;;;;;;4.90;3.20;;;;;;;16.75;67.94;100243.47;5072785;28;20080;-34
2021/10/29 12:53:16;;;;;;;8.90;3.63;;;;;;;16.83;68.34;100206.66;5072241;28;20139;-42
2021/10/29 12:58:54;;;;;;;7.45;3.83;;;;;;;16.77;68.17;100201.66;5069872;28;20047;-37
2021/10/29 13:01:34;;;;;;;7.07;3.60;;;;;;;16.74;68.03;100206.00;5072665;28;20124;-31
2021/10/29 13:04:04;;;;;;;5.50;3.70;;;;;;;16.68;67.96;100193.34;5062302;28;20045;-40
2021/10/29 13:06:35;;;;;;;7.35;3.55;;;;;;;16.64;68.01;100189.59;5072275;28;20044;-33
2021/10/29 13:09:14;;;;;;;7.10;3.50;;;;;;;16.66;68.73;100194.88;5072945;28;20083;-39
2021/10/29 13:11:51;;;;;;;7.07;3.22;;;;;;;16.75;68.88;100198.38;5072548;28;20049;-37
2021/10/29 13:14:29;;;;;;;5.75;3.30;;;;;;;16.77;68.48;100185.56;5073207;28;20048;-39
2021/10/29 13:17:00;;;;;;;5.75;3.50;;;;;;;16.75;68.46;100195.56;5072809;28;20148;-38
2021/10/29 13:19:42;;;;;;;9.43;3.28;;;;;;;16.83;68.06;100177.66;5072290;28;20088;-39
2021/10/29 13:28:17;;;;;;;4.68;3.03;;;;;;;16.76;68.56;100167.03;5071938;28;20490;-38
2021/10/29 13:36:35;;;;;;;6.38;3.20;;;;;;;16.80;68.27;100164.28;5045938;28;20055;-36
2021/10/29 13:53:04;;;;;;;9.38;3.50;;;;;;;16.59;70.11;100158.00;5056114;28;20516;-36
2021/10/29 13:55:55;;;;;;;5.07;3.40;;;;;;;16.52;70.41;100167.06;5072353;28;20044;-35
2021/10/29 13:58:42;;;;;;;7.97;3.92;;;;;;;16.44;71.01;100176.47;5072635;28;20105;-38
2021/10/29 14:01:28;;;;;;;8.65;4.35;;;;;;;16.39;71.31;100173.88;5063082;28;20049;-41
2021/10/29 14:16:18;;;;;;;7.15;3.70;;;;;;;16.36;71.57;100177.44;5072293;28;20051;-40